Time;durP1;ratioP1;P1;durP2;ratioP2;P2;SDS_P1;SDS_P2;PMS_P1;PMS_P2;Temp;Humidity;BMP_temperature;BMP_pressure;BME280_temperature;BME280_humidity;BME280_pressure;Samples;Min_cycle;Max_cycle;Signal;HPM_P1;HPM_P2
2022/09/15 00:00:53;;;;;;;3.25;1.73;;;;;;;13.80;100.00;100183.34;6249711;28;20049;-71
2022/09/15 00:03:54;;;;;;;3.58;1.52;;;;;;;13.78;100.00;100190.56;6249016;28;20049;-71
2022/09/15 00:06:56;;;;;;;2.33;1.63;;;;;;;13.78;100.00;100184.44;6249566;28;20053;-72
2022/09/15 00:09:58;;;;;;;2.60;1.60;;;;;;;13.69;100.00;100196.53;6249180;28;20416;-72
2022/09/15 00:13:00;;;;;;;4.68;1.90;;;;;;;13.72;100.00;100193.69;6249237;28;20056;-72
2022/09/15 00:16:02;;;;;;;3.80;1.67;;;;;;;13.67;100.00;100190.53;6248957;28;20057;-72
2022/09/15 00:19:05;;;;;;;4.20;1.75;;;;;;;13.64;100.00;100190.78;6249537;28;20146;-72
2022/09/15 00:22:06;;;;;;;2.70;1.60;;;;;;;13.62;100.00;100196.16;6249133;28;20053;-72
2022/09/15 00:25:09;;;;;;;8.10;2.28;;;;;;;13.65;100.00;100197.72;6249009;28;20057;-72
2022/09/15 00:28:11;;;;;;;4.78;1.42;;;;;;;13.64;100.00;100196.06;6249990;28;20045;-72
2022/09/15 00:31:14;;;;;;;2.65;1.45;;;;;;;13.61;100.00;100199.75;6248891;28;20061;-72
2022/09/15 00:34:15;;;;;;;4.65;1.15;;;;;;;13.54;100.00;100205.63;6248686;28;20072;-71
2022/09/15 00:37:17;;;;;;;2.95;1.40;;;;;;;13.57;100.00;100202.72;6248769;28;20060;-72
2022/09/15 00:40:19;;;;;;;5.53;1.55;;;;;;;13.58;100.00;100202.63;6248146;28;20461;-72
2022/09/15 00:43:41;;;;;;;1.92;1.48;;;;;;;13.56;100.00;100203.69;6248684;28;20408;-73
2022/09/15 00:46:45;;;;;;;4.13;1.88;;;;;;;13.53;100.00;100199.47;6248645;28;20516;-72
2022/09/15 00:49:48;;;;;;;6.93;2.08;;;;;;;13.47;100.00;100199.09;6248180;28;20050;-72
2022/09/15 00:52:55;;;;;;;4.85;2.22;;;;;;;13.40;100.00;100191.66;6247532;28;20056;-72
2022/09/15 00:55:59;;;;;;;5.07;1.60;;;;;;;13.34;100.00;100192.09;6247950;28;20138;-72
2022/09/15 00:59:03;;;;;;;2.67;1.27;;;;;;;13.26;100.00;100196.22;6248319;28;20056;-72
2022/09/15 01:02:11;;;;;;;3.33;1.38;;;;;;;13.17;100.00;100200.34;6247914;28;20060;-72
2022/09/15 01:05:16;;;;;;;3.72;1.85;;;;;;;13.07;100.00;100194.91;6247958;28;20046;-72
2022/09/15 01:08:25;;;;;;;3.80;1.50;;;;;;;12.97;100.00;100196.53;6247900;28;20079;-72
2022/09/15 01:11:28;;;;;;;;;;;;;;;12.91;100.00;100191.72;6248776;28;20045;-72
2022/09/15 01:14:30;;;;;;;2.10;1.42;;;;;;;12.85;100.00;100189.50;6247411;28;20292;-72
2022/09/15 01:17:43;;;;;;;4.22;1.67;;;;;;;12.81;100.00;100196.81;6248043;28;20056;-73
2022/09/15 01:20:57;;;;;;;5.25;1.80;;;;;;;12.74;100.00;100187.63;6247290;28;20041;-72
2022/09/15 01:24:29;;;;;;;5.22;1.80;;;;;;;12.64;100.00;100192.72;6247388;28;20583;-72
2022/09/15 01:27:50;;;;;;;5.55;1.92;;;;;;;12.59;100.00;100189.56;6247489;28;20076;-72
2022/09/15 01:30:58;;;;;;;2.75;1.55;;;;;;;12.58;100.00;100195.81;6247334;28;20049;-72
2022/09/15 01:34:04;;;;;;;3.72;1.33;;;;;;;12.62;100.00;100193.78;6247443;28;20057;-72
2022/09/15 01:37:12;;;;;;;2.15;1.70;;;;;;;12.59;100.00;100194.00;6247729;28;20505;-72
2022/09/15 01:40:17;;;;;;;7.53;1.85;;;;;;;12.60;100.00;100193.88;6247233;28;20049;-71
2022/09/15 01:43:20;;;;;;;4.50;1.83;;;;;;;12.53;100.00;100187.34;6246935;28;20417;-72
2022/09/15 01:46:26;;;;;;;2.88;1.48;;;;;;;12.52;100.00;100177.75;6246859;28;20420;-72
2022/09/15 01:49:30;;;;;;;4.38;1.73;;;;;;;12.51;100.00;100183.16;6246981;28;20611;-72
2022/09/15 01:52:33;;;;;;;14.55;2.70;;;;;;;12.50;100.00;100178.84;6248192;28;20057;-71
2022/09/15 01:55:38;;;;;;;4.03;2.17;;;;;;;12.53;100.00;100183.88;6247791;28;20057;-72
2022/09/15 01:58:40;;;;;;;3.50;1.73;;;;;;;12.51;100.00;100188.44;6248685;28;20081;-72
2022/09/15 02:01:50;;;;;;;3.95;2.17;;;;;;;12.51;100.00;100191.91;6247592;28;20052;-72
2022/09/15 02:04:55;;;;;;;5.35;1.88;;;;;;;12.51;100.00;100191.91;6246257;28;20050;-72
2022/09/15 02:08:04;;;;;;;4.18;1.92;;;;;;;12.48;100.00;100191.28;6246754;28;20052;-72
2022/09/15 02:11:14;;;;;;;5.23;2.17;;;;;;;12.43;100.00;100181.03;6246240;28;20056;-72
2022/09/15 02:14:20;;;;;;;2.72;1.77;;;;;;;12.38;100.00;100181.38;6246800;28;20049;-72
2022/09/15 02:17:28;;;;;;;2.40;1.85;;;;;;;12.36;100.00;100185.91;6247114;28;20053;-72
2022/09/15 02:20:38;;;;;;;3.15;1.65;;;;;;;12.35;100.00;100175.47;6247558;28;20103;-71
2022/09/15 02:23:46;;;;;;;5.15;2.20;;;;;;;12.32;100.00;100181.81;6246501;28;20083;-71
2022/09/15 02:26:51;;;;;;;3.67;1.83;;;;;;;12.33;100.00;100186.13;6247924;28;20057;-71
2022/09/15 02:29:58;;;;;;;5.15;2.00;;;;;;;12.29;100.00;100175.91;6246206;28;20046;-72
2022/09/15 02:33:07;;;;;;;4.53;1.95;;;;;;;12.27;100.00;100183.09;6246750;28;20405;-72
2022/09/15 02:36:10;;;;;;;3.80;2.30;;;;;;;12.22;100.00;100182.53;6246113;28;20063;-72
2022/09/15 02:39:18;;;;;;;6.38;2.15;;;;;;;12.23;100.00;100187.72;6246284;28;20077;-71
2022/09/15 02:42:24;;;;;;;4.15;2.40;;;;;;;12.23;100.00;100181.59;6245963;28;20487;-72
2022/09/15 02:45:25;;;;;;;2.72;1.92;;;;;;;12.24;100.00;100172.75;6245914;28;20042;-71
2022/09/15 02:48:28;;;;;;;5.03;2.00;;;;;;;12.22;100.00;100174.63;6246217;28;20429;-72
2022/09/15 02:51:29;;;;;;;3.85;1.95;;;;;;;12.20;100.00;100164.22;6246000;28;20053;-72
2022/09/15 02:54:31;;;;;;;3.63;1.70;;;;;;;12.16;100.00;100175.91;6243237;28;20187;-72
2022/09/15 02:57:32;;;;;;;3.33;2.08;;;;;;;12.16;100.00;100174.09;6246273;28;20050;-72
2022/09/15 03:00:34;;;;;;;2.70;1.45;;;;;;;12.19;100.00;100173.06;6245794;28;20045;-72
2022/09/15 03:03:36;;;;;;;2.75;2.00;;;;;;;12.22;100.00;100167.59;6245831;28;20057;-72
2022/09/15 03:06:38;;;;;;;3.08;1.80;;;;;;;12.21;100.00;100173.78;6245724;28;20505;-72
2022/09/15 03:09:39;;;;;;;4.78;1.80;;;;;;;12.26;100.00;100169.03;6245848;28;20056;-72
2022/09/15 03:12:42;;;;;;;2.05;1.30;;;;;;;12.36;100.00;100170.09;6246288;28;20485;-72
2022/09/15 03:15:43;;;;;;;3.75;1.45;;;;;;;12.39;100.00;100169.03;6249215;28;20140;-72
2022/09/15 03:18:47;;;;;;;3.42;1.40;;;;;;;12.51;100.00;100167.34;6251225;28;20053;-71
2022/09/15 03:21:48;;;;;;;2.35;1.45;;;;;;;12.57;100.00;100173.00;6250538;28;20513;-72
2022/09/15 03:24:50;;;;;;;2.15;1.63;;;;;;;12.59;100.00;100173.75;6251198;28;20041;-71
2022/09/15 03:27:52;;;;;;;1.52;1.30;;;;;;;12.69;100.00;100185.31;6250730;28;20140;-72
2022/09/15 03:30:53;;;;;;;6.88;2.53;;;;;;;12.70;100.00;100181.72;6249974;28;20093;-72
2022/09/15 03:33:57;;;;;;;2.13;1.40;;;;;;;12.73;100.00;100183.31;6251092;28;20509;-72
2022/09/15 03:36:58;;;;;;;3.55;1.70;;;;;;;12.68;100.00;100177.53;6250575;28;20537;-73
2022/09/15 03:39:59;;;;;;;3.80;1.80;;;;;;;12.72;100.00;100186.03;6249538;28;20061;-72
2022/09/15 03:43:00;;;;;;;3.75;1.65;;;;;;;12.77;100.00;100187.44;6251369;28;20128;-72
2022/09/15 03:46:03;;;;;;;3.88;1.67;;;;;;;12.74;100.00;100179.72;6250060;28;20068;-72
2022/09/15 03:49:06;;;;;;;4.07;2.30;;;;;;;12.73;100.00;100185.97;6252478;28;20409;-73
2022/09/15 03:52:07;;;;;;;6.15;1.70;;;;;;;12.79;100.00;100187.31;6250097;28;20050;-73
2022/09/15 03:55:09;;;;;;;7.10;1.67;;;;;;;12.72;100.00;100197.47;6250455;28;20072;-73
2022/09/15 03:58:10;;;;;;;2.97;1.58;;;;;;;12.75;100.00;100185.84;6249713;28;20069;-72
2022/09/15 04:01:12;;;;;;;2.47;1.42;;;;;;;12.75;100.00;100176.13;6249703;28;20048;-72
2022/09/15 04:04:15;;;;;;;2.13;1.15;;;;;;;12.78;100.00;100180.34;6249343;28;20041;-72
2022/09/15 04:07:16;;;;;;;7.30;1.70;;;;;;;12.75;100.00;100178.75;6250356;28;20053;-72
2022/09/15 04:10:18;;;;;;;6.40;1.75;;;;;;;12.76;100.00;100182.25;6249431;28;20072;-72
2022/09/15 04:13:19;;;;;;;3.38;1.70;;;;;;;12.78;100.00;100186.47;6249867;28;20041;-72
2022/09/15 04:16:23;;;;;;;6.10;1.55;;;;;;;12.79;100.00;100187.31;6251022;28;20057;-73
2022/09/15 04:19:26;;;;;;;5.95;1.88;;;;;;;12.73;100.00;100185.13;6249628;28;20057;-72
2022/09/15 04:22:30;;;;;;;5.00;1.85;;;;;;;12.76;100.00;100196.25;6249321;28;20056;-72
2022/09/15 04:25:32;;;;;;;3.25;1.80;;;;;;;12.81;100.00;100193.31;6247619;28;20057;-72
2022/09/15 04:28:35;;;;;;;3.08;1.73;;;;;;;12.82;100.00;100185.31;6247365;28;20390;-71
2022/09/15 04:31:37;;;;;;;4.22;1.85;;;;;;;12.80;100.00;100183.72;6247740;28;20041;-72
2022/09/15 04:34:39;;;;;;;5.13;2.20;;;;;;;12.77;100.00;100184.78;6247300;28;20060;-72
2022/09/15 04:37:41;;;;;;;2.78;1.83;;;;;;;12.76;100.00;100185.72;6247377;28;20050;-71
2022/09/15 04:40:42;;;;;;;3.60;1.60;;;;;;;12.71;100.00;100185.22;6247339;28;20247;-72
2022/09/15 04:43:44;;;;;;;4.10;1.63;;;;;;;12.75;100.00;100184.03;6247076;28;20048;-71
2022/09/15 04:46:46;;;;;;;2.38;1.58;;;;;;;12.76;100.00;100187.50;6247384;28;20048;-71
2022/09/15 04:49:48;;;;;;;2.30;1.60;;;;;;;12.78;100.00;100189.09;6246731;28;20053;-71
2022/09/15 04:52:50;;;;;;;2.47;1.73;;;;;;;12.67;100.00;100184.59;6248185;28;20045;-71
2022/09/15 04:55:52;;;;;;;2.83;1.95;;;;;;;12.68;100.00;100186.28;6247080;28;20049;-72
2022/09/15 04:58:55;;;;;;;2.90;1.83;;;;;;;12.74;100.00;100195.53;6244443;28;20464;-72
2022/09/15 05:01:57;;;;;;;2.22;1.48;;;;;;;12.76;100.00;100191.00;6242488;28;20053;-72
2022/09/15 05:05:01;;;;;;;3.08;1.70;;;;;;;12.77;100.00;100189.22;6247076;28;20071;-71
2022/09/15 05:08:02;;;;;;;3.15;1.38;;;;;;;12.81;100.00;100196.81;6246663;28;20045;-72
2022/09/15 05:11:07;;;;;;;2.45;1.48;;;;;;;12.80;100.00;100196.91;6246459;28;20413;-72
2022/09/15 05:14:09;;;;;;;3.65;1.70;;;;;;;12.83;100.00;100205.44;6246270;28;20524;-72
2022/09/15 05:17:11;;;;;;;2.03;1.40;;;;;;;12.85;100.00;100202.69;6247118;28;20042;-71
2022/09/15 05:20:13;;;;;;;4.40;1.77;;;;;;;12.87;100.00;100203.44;6248088;28;20053;-72
2022/09/15 05:23:15;;;;;;;1.85;1.33;;;;;;;12.78;100.00;100207.56;6250466;28;20060;-72
2022/09/15 05:26:19;;;;;;;3.03;1.60;;;;;;;12.73;100.00;100212.31;6249901;28;20042;-73
2022/09/15 05:29:20;;;;;;;3.22;1.65;;;;;;;12.77;100.00;100210.31;6249495;28;20419;-72
2022/09/15 05:32:21;;;;;;;5.18;1.58;;;;;;;12.83;100.00;100210.72;6247956;28;20053;-72
2022/09/15 05:35:24;;;;;;;6.75;1.77;;;;;;;12.84;100.00;100206.28;6247286;28;20049;-73
2022/09/15 05:38:28;;;;;;;4.82;1.67;;;;;;;12.84;100.00;100214.19;6248277;28;20049;-71
2022/09/15 05:41:29;;;;;;;2.15;1.58;;;;;;;12.95;100.00;100215.13;6247274;28;20057;-72
2022/09/15 05:44:30;;;;;;;2.88;1.73;;;;;;;12.91;100.00;100207.53;6247908;28;20046;-73
2022/09/15 05:47:32;;;;;;;4.20;2.72;;;;;;;12.95;100.00;100212.47;6248399;28;20486;-72
2022/09/15 05:50:35;;;;;;;2.10;1.80;;;;;;;12.94;100.00;100216.06;6247389;28;20049;-73
2022/09/15 05:53:37;;;;;;;2.45;1.38;;;;;;;12.94;100.00;100223.13;6248430;28;20073;-71
2022/09/15 05:56:38;;;;;;;3.17;1.50;;;;;;;13.01;100.00;100213.81;6247003;28;20053;-72
2022/09/15 05:59:40;;;;;;;1.67;1.23;;;;;;;12.97;100.00;100219.44;6247991;28;20061;-70
2022/09/15 06:02:42;;;;;;;4.78;1.60;;;;;;;13.07;100.00;100217.81;6247545;28;20131;-72
2022/09/15 06:05:44;;;;;;;3.60;1.52;;;;;;;13.10;100.00;100212.31;6246756;28;20045;-72
2022/09/15 06:08:48;;;;;;;2.90;1.35;;;;;;;13.14;100.00;100214.63;6246912;28;20049;-72
2022/09/15 06:11:51;;;;;;;4.40;1.45;;;;;;;13.14;100.00;100205.88;6246942;28;20052;-72
2022/09/15 06:14:52;;;;;;;5.88;1.88;;;;;;;13.18;100.00;100202.91;6246655;28;20103;-72
2022/09/15 06:17:53;;;;;;;2.53;1.40;;;;;;;13.18;100.00;100199.44;6247096;28;20065;-72
2022/09/15 06:20:56;;;;;;;3.22;1.90;;;;;;;13.23;100.00;100202.59;6246886;28;20057;-71
2022/09/15 06:23:59;;;;;;;6.13;1.65;;;;;;;13.26;100.00;100210.28;6247421;28;20041;-72
2022/09/15 06:27:01;;;;;;;2.83;1.10;;;;;;;13.31;100.00;100205.53;6247062;28;20052;-72
2022/09/15 06:30:03;;;;;;;1.50;1.15;;;;;;;13.31;100.00;100209.97;6246451;28;20049;-72
2022/09/15 06:33:04;;;;;;;2.03;1.30;;;;;;;13.33;100.00;100206.25;6246630;28;20263;-71
2022/09/15 06:36:08;;;;;;;5.50;1.73;;;;;;;13.39;100.00;100203.13;6246322;28;20089;-72
2022/09/15 06:39:10;;;;;;;12.80;1.55;;;;;;;13.41;100.00;100205.69;6246377;28;20454;-72
2022/09/15 06:42:11;;;;;;;3.78;1.17;;;;;;;13.44;100.00;100208.94;6246217;28;20049;-72
2022/09/15 06:45:12;;;;;;;4.20;1.25;;;;;;;13.47;100.00;100202.59;6246009;28;20052;-73
2022/09/15 06:48:14;;;;;;;9.38;1.50;;;;;;;13.53;100.00;100209.19;6246489;28;20053;-71
2022/09/15 06:51:18;;;;;;;4.18;1.50;;;;;;;13.51;100.00;100211.97;6250062;28;20049;-72
2022/09/15 06:54:20;;;;;;;1.75;0.88;;;;;;;13.49;100.00;100207.75;6251962;28;20049;-72
2022/09/15 06:57:21;;;;;;;3.22;1.00;;;;;;;13.55;100.00;100205.50;6252193;28;20056;-72
2022/09/15 07:00:22;;;;;;;2.00;0.90;;;;;;;13.59;100.00;100214.88;6251695;28;20049;-72
2022/09/15 07:03:24;;;;;;;0.40;0.40;;;;;;;13.60;100.00;100216.56;6252449;28;20056;-73
2022/09/15 07:06:29;;;;;;;3.17;0.60;;;;;;;13.55;100.00;100225.78;6251101;28;20053;-72
2022/09/15 07:09:30;;;;;;;1.17;0.80;;;;;;;13.51;100.00;100230.44;6253192;28;20053;-71
2022/09/15 07:12:32;;;;;;;3.25;0.80;;;;;;;13.54;100.00;100243.44;6251700;28;20125;-72
2022/09/15 07:15:34;;;;;;;1.15;0.50;;;;;;;13.62;100.00;100243.69;6250902;28;20631;-72
2022/09/15 07:18:35;;;;;;;4.07;0.80;;;;;;;13.71;100.00;100247.44;6250552;28;20049;-72
2022/09/15 07:21:38;;;;;;;1.63;0.70;;;;;;;13.73;100.00;100240.25;6251049;28;20049;-71
2022/09/15 07:24:39;;;;;;;2.25;0.60;;;;;;;13.79;100.00;100246.88;6250169;28;20052;-72
2022/09/15 07:27:41;;;;;;;2.17;0.95;;;;;;;13.80;100.00;100251.19;6251608;28;20049;-72
2022/09/15 07:30:43;;;;;;;2.35;0.90;;;;;;;13.80;100.00;100244.09;6250565;28;20060;-72
2022/09/15 07:33:45;;;;;;;3.80;1.00;;;;;;;13.81;100.00;100251.09;6250879;28;20147;-73
2022/09/15 07:36:48;;;;;;;4.25;1.00;;;;;;;13.88;100.00;100256.75;6250666;28;20048;-73
2022/09/15 07:39:49;;;;;;;1.10;0.80;;;;;;;13.84;100.00;100255.28;6250185;28;20402;-72
2022/09/15 07:42:51;;;;;;;4.20;1.05;;;;;;;13.85;100.00;100260.47;6250619;28;20064;-73
2022/09/15 07:45:52;;;;;;;5.70;1.20;;;;;;;13.89;100.00;100259.25;6249850;28;20180;-72
2022/09/15 07:48:55;;;;;;;4.38;1.65;;;;;;;13.95;100.00;100261.47;6250665;28;20050;-73
2022/09/15 07:51:57;;;;;;;1.13;1.00;;;;;;;13.96;100.00;100252.56;6250473;28;20422;-73
2022/09/15 07:54:59;;;;;;;6.30;1.50;;;;;;;13.98;100.00;100263.03;6251194;28;20052;-73
2022/09/15 07:58:00;;;;;;;4.78;1.88;;;;;;;13.98;100.00;100263.03;6250240;28;20049;-72
2022/09/15 08:01:02;;;;;;;2.70;1.20;;;;;;;14.04;100.00;100270.50;6249958;28;20065;-72
2022/09/15 08:04:04;;;;;;;1.05;0.90;;;;;;;14.06;100.00;100265.94;6251601;28;20045;-73
2022/09/15 08:07:06;;;;;;;1.10;0.70;;;;;;;14.06;100.00;100265.09;6252975;28;20041;-73
2022/09/15 08:10:08;;;;;;;2.75;0.85;;;;;;;14.06;100.00;100260.66;6251545;28;20056;-73
2022/09/15 08:13:10;;;;;;;2.55;0.98;;;;;;;14.21;100.00;100270.03;6251626;28;20421;-72
2022/09/15 08:16:13;;;;;;;7.05;1.60;;;;;;;14.23;100.00;100262.03;6250757;28;20049;-72
2022/09/15 08:19:14;;;;;;;4.95;1.10;;;;;;;14.28;100.00;100262.50;6252621;28;20140;-72
2022/09/15 08:22:17;;;;;;;3.65;1.75;;;;;;;14.39;100.00;100259.84;6251643;28;20049;-72
2022/09/15 08:25:18;;;;;;;1.23;0.90;;;;;;;14.43;100.00;100261.31;6250308;28;20049;-72
2022/09/15 08:28:20;;;;;;;2.67;0.90;;;;;;;14.43;100.00;100258.66;6248973;28;20478;-73
2022/09/15 08:31:22;;;;;;;1.00;0.70;;;;;;;14.53;100.00;100264.13;6249080;28;20057;-73
2022/09/15 08:34:24;;;;;;;5.35;1.27;;;;;;;14.60;100.00;100265.34;6247267;28;20054;-72
2022/09/15 08:37:26;;;;;;;4.20;1.20;;;;;;;14.61;100.00;100269.66;6245856;28;20056;-73
2022/09/15 08:40:32;;;;;;;2.20;0.70;;;;;;;14.71;100.00;100272.41;6249999;28;20050;-72
2022/09/15 08:43:39;;;;;;;3.00;0.70;;;;;;;14.74;100.00;100284.56;6250449;28;20045;-73
2022/09/15 08:46:47;;;;;;;2.38;0.73;;;;;;;14.75;100.00;100280.97;6247325;28;20045;-73
2022/09/15 08:50:01;;;;;;;0.57;0.40;;;;;;;14.95;95.77;100274.97;6248047;28;20049;-72
2022/09/15 08:53:08;;;;;;;2.33;0.40;;;;;;;14.97;96.37;100276.50;6245137;28;20292;-72
2022/09/15 08:56:15;;;;;;;2.75;0.60;;;;;;;15.06;95.05;100272.28;6247916;28;20047;-74
2022/09/15 08:59:18;;;;;;;0.52;0.30;;;;;;;15.15;94.54;100271.56;6249060;28;20053;-76
2022/09/15 09:02:43;;;;;;;1.55;0.40;;;;;;;15.19;91.15;100275.66;6248250;28;20049;-74
2022/09/15 09:05:54;;;;;;;6.28;0.80;;;;;;;15.32;91.64;100282.59;6247637;28;20528;-74
2022/09/15 09:09:19;;;;;;;0.35;0.30;;;;;;;15.53;90.78;100293.25;6248246;28;20052;-74
2022/09/15 09:12:37;;;;;;;2.92;0.85;;;;;;;15.70;89.12;100295.41;6245969;28;20390;-74
2022/09/15 09:15:52;;;;;;;1.50;0.30;;;;;;;15.84;89.87;100295.09;6247692;28;20049;-75
2022/09/15 09:19:13;;;;;;;1.05;0.50;;;;;;;15.81;86.12;100292.72;6248118;28;20049;-74
2022/09/15 09:22:20;;;;;;;1.83;0.52;;;;;;;15.84;87.29;100295.09;6234939;28;20444;-74
2022/09/15 09:25:23;;;;;;;0.80;0.50;;;;;;;16.01;83.50;100290.22;6247661;28;20080;-74
2022/09/15 09:28:31;;;;;;;1.60;0.50;;;;;;;16.00;84.77;100288.56;6247960;28;20049;-74
2022/09/15 09:31:35;;;;;;;1.30;0.45;;;;;;;16.04;83.14;100288.16;6247515;28;20061;-74
2022/09/15 09:34:43;;;;;;;1.45;0.57;;;;;;;16.04;83.74;100289.97;6247508;28;20485;-74
2022/09/15 09:37:45;;;;;;;4.30;0.35;;;;;;;16.24;82.42;100294.44;6248105;28;20057;-74
2022/09/15 09:40:49;;;;;;;0.20;0.20;;;;;;;16.22;80.05;100285.78;6247001;28;20395;-74
2022/09/15 09:43:53;;;;;;;2.53;0.75;;;;;;;16.15;79.49;100282.78;6247455;28;20057;-74
2022/09/15 09:46:54;;;;;;;6.32;1.02;;;;;;;16.17;78.57;100291.47;6247727;28;20056;-74
2022/09/15 09:49:55;;;;;;;0.65;0.38;;;;;;;16.20;79.50;100288.53;6247424;28;20140;-74
2022/09/15 09:52:57;;;;;;;1.30;0.47;;;;;;;16.29;78.10;100286.94;6247417;28;20050;-75
2022/09/15 09:56:18;;;;;;;0.88;0.25;;;;;;;16.51;76.91;100275.34;6247018;28;20045;-75
2022/09/15 09:59:35;;;;;;;1.85;0.50;;;;;;;16.36;73.67;100282.81;6247117;28;20050;-74
2022/09/15 10:02:46;;;;;;;6.78;1.25;;;;;;;16.28;73.83;100287.91;6247472;28;20067;-74
2022/09/15 10:06:01;;;;;;;3.33;0.73;;;;;;;16.18;74.80;100287.00;6246802;28;20050;-74
2022/09/15 10:09:09;;;;;;;1.42;0.57;;;;;;;16.20;74.42;100285.06;6241515;28;20044;-74
2022/09/15 10:12:20;;;;;;;1.17;0.30;;;;;;;16.33;74.26;100275.09;6242838;28;20049;-74
2022/09/15 10:15:24;;;;;;;2.53;0.55;;;;;;;16.31;73.65;100281.53;6246214;28;20525;-74
2022/09/15 10:18:29;;;;;;;1.25;0.50;;;;;;;16.35;73.19;100273.16;6247113;28;20045;-73
2022/09/15 10:21:30;;;;;;;0.45;0.40;;;;;;;16.49;74.07;100267.53;6246652;28;20421;-76
2022/09/15 10:24:38;;;;;;;2.50;0.50;;;;;;;16.82;72.04;100270.91;6246223;28;20560;-74
2022/09/15 10:27:41;;;;;;;0.50;0.20;;;;;;;16.78;72.44;100269.50;6246480;28;20136;-73
2022/09/15 10:30:59;;;;;;;2.05;0.45;;;;;;;16.69;71.86;100264.97;6246067;28;20054;-74
2022/09/15 10:34:25;;;;;;;0.77;0.75;;;;;;;16.57;72.39;100263.34;6246365;28;20056;-74
2022/09/15 10:37:31;;;;;;;0.30;0.22;;;;;;;16.55;72.23;100268.81;6246767;28;20041;-74
2022/09/15 10:40:38;;;;;;;3.35;0.40;;;;;;;16.55;73.68;100260.00;6246624;28;20136;-74
2022/09/15 10:43:47;;;;;;;4.28;0.45;;;;;;;16.44;74.03;100261.78;6246589;28;20072;-74
2022/09/15 10:46:54;;;;;;;;;;;;;;;16.24;80.81;100274.06;6246789;28;20053;-73
2022/09/15 10:50:07;;;;;;;2.00;0.40;;;;;;;16.15;83.90;100279.31;6245960;28;20292;-74
2022/09/15 10:53:16;;;;;;;4.72;0.32;;;;;;;16.28;84.92;100290.56;6246292;28;20049;-73
2022/09/15 10:56:24;;;;;;;;;;;;;;;16.46;79.41;100270.44;6246613;28;20050;-74
2022/09/15 10:59:37;;;;;;;1.65;0.52;;;;;;;16.35;75.31;100267.88;6246463;28;19927;-73
2022/09/15 11:03:12;;;;;;;1.52;0.70;;;;;;;16.49;74.76;100272.00;6246310;28;20050;-73
2022/09/15 11:06:21;;;;;;;1.35;0.73;;;;;;;16.47;71.59;100271.28;6245951;28;20050;-75
2022/09/15 11:09:26;;;;;;;2.95;1.40;;;;;;;16.58;71.37;100276.50;6246110;28;20061;-75
2022/09/15 11:12:40;;;;;;;2.05;0.88;;;;;;;16.49;70.26;100266.69;6246182;28;20052;-75
2022/09/15 11:15:53;;;;;;;1.10;0.30;;;;;;;16.56;70.74;100275.78;6245731;28;20052;-74
2022/09/15 11:19:08;;;;;;;2.17;0.70;;;;;;;16.56;71.42;100282.91;6246244;28;20049;-74
2022/09/15 11:22:15;;;;;;;1.67;0.45;;;;;;;16.55;71.68;100284.72;6245064;28;20060;-74
2022/09/15 11:25:20;;;;;;;2.90;0.70;;;;;;;16.59;71.76;100307.38;6245462;28;20041;-74
2022/09/15 11:28:26;;;;;;;0.93;0.30;;;;;;;16.43;75.87;100305.16;6246193;28;20440;-75
2022/09/15 11:31:31;;;;;;;2.15;0.40;;;;;;;16.06;79.07;100307.44;6244154;28;20053;-74
2022/09/15 11:34:36;;;;;;;5.28;0.68;;;;;;;16.04;81.72;100311.19;6245512;28;20054;-75
2022/09/15 11:37:45;;;;;;;0.70;0.30;;;;;;;15.96;83.47;100317.13;6248273;28;20048;-74
2022/09/15 11:40:49;;;;;;;;;;;;;;;15.89;85.49;100310.63;6250160;28;20049;-75
2022/09/15 11:43:58;;;;;;;0.90;0.68;;;;;;;16.12;85.35;100306.91;6249666;28;19928;-74
2022/09/15 11:47:09;;;;;;;0.55;0.43;;;;;;;16.07;85.42;100302.97;6250423;28;20045;-76
2022/09/15 11:50:18;;;;;;;1.33;0.40;;;;;;;16.15;86.02;100301.34;6249907;28;20049;-76
2022/09/15 11:53:30;;;;;;;0.85;0.40;;;;;;;16.74;82.07;100299.94;6250282;28;20429;-76
2022/09/15 11:56:36;;;;;;;0.30;0.30;;;;;;;16.97;77.35;100312.03;6249770;28;20501;-75
2022/09/15 11:59:43;;;;;;;0.40;0.30;;;;;;;17.32;75.25;100302.81;6249842;28;20057;-75
2022/09/15 12:02:51;;;;;;;1.17;0.30;;;;;;;17.18;72.66;100300.53;6250003;28;20440;-75
2022/09/15 12:05:55;;;;;;;0.15;0.10;;;;;;;17.08;72.58;100297.84;6249600;28;20390;-75
2022/09/15 12:09:00;;;;;;;4.32;0.40;;;;;;;17.05;73.84;100290.13;6249673;28;20049;-75
2022/09/15 12:12:08;;;;;;;1.55;0.57;;;;;;;17.14;72.83;100286.69;6249896;28;20052;-76
2022/09/15 12:15:15;;;;;;;0.15;0.13;;;;;;;17.27;72.71;100299.72;6249475;28;20046;-75
2022/09/15 12:18:24;;;;;;;1.08;0.70;;;;;;;17.12;72.83;100296.59;6249940;28;20057;-73
2022/09/15 12:21:34;;;;;;;1.85;0.30;;;;;;;17.02;73.65;100305.50;6249307;28;20056;-75
2022/09/15 12:24:42;;;;;;;0.73;0.20;;;;;;;16.98;73.16;100295.13;6249052;28;20058;-75
2022/09/15 12:27:44;;;;;;;0.75;0.40;;;;;;;17.02;74.23;100300.19;6249880;28;20136;-76
2022/09/15 12:30:45;;;;;;;0.63;0.52;;;;;;;16.96;74.38;100296.25;6249029;28;20049;-75
2022/09/15 12:33:54;;;;;;;0.25;0.20;;;;;;;16.83;76.20;100293.81;6249148;28;20045;-75
2022/09/15 12:37:06;;;;;;;1.75;0.75;;;;;;;16.85;77.93;100299.84;6249120;28;20048;-75
2022/09/15 12:40:26;;;;;;;0.57;0.30;;;;;;;16.92;78.50;100290.38;6248759;28;20456;-76
2022/09/15 12:43:30;;;;;;;0.60;0.30;;;;;;;16.98;78.20;100289.81;6249189;28;20413;-75
2022/09/15 12:46:32;;;;;;;1.30;0.43;;;;;;;17.00;75.91;100300.31;6248668;28;20049;-74
2022/09/15 12:49:36;;;;;;;1.45;0.60;;;;;;;16.88;74.74;100294.25;6248399;28;20102;-74
2022/09/15 12:52:44;;;;;;;0.45;0.25;;;;;;;16.82;76.20;100302.75;6248660;28;20045;-75
2022/09/15 12:55:51;;;;;;;1.08;0.40;;;;;;;16.97;71.97;100296.13;6248359;28;20046;-75
2022/09/15 12:58:54;;;;;;;4.18;0.45;;;;;;;17.05;71.40;100305.22;6248629;28;20065;-75
2022/09/15 13:01:56;;;;;;;2.72;0.32;;;;;;;17.16;67.42;100291.84;6248457;28;20064;-74
2022/09/15 13:04:57;;;;;;;0.73;0.28;;;;;;;17.14;66.67;100297.28;6248023;28;20056;-74
2022/09/15 13:07:59;;;;;;;1.73;0.50;;;;;;;17.17;64.79;100297.03;6248098;28;20052;-74
2022/09/15 13:11:04;;;;;;;3.95;0.85;;;;;;;17.05;64.77;100303.41;6248096;28;20054;-75
2022/09/15 13:14:24;;;;;;;0.40;0.30;;;;;;;17.32;64.00;100300.16;6247932;28;20052;-74
2022/09/15 13:17:28;;;;;;;0.50;0.28;;;;;;;17.17;63.00;100305.00;6247997;28;20390;-75
2022/09/15 13:20:33;;;;;;;0.77;0.20;;;;;;;17.16;61.58;100284.72;6247523;28;20412;-75
2022/09/15 13:23:40;;;;;;;0.88;0.43;;;;;;;17.02;62.83;100278.94;6247863;28;20429;-74
2022/09/15 13:26:47;;;;;;;1.10;0.22;;;;;;;17.00;62.91;100284.41;6247781;28;20052;-75
2022/09/15 13:29:54;;;;;;;0.20;0.20;;;;;;;16.92;62.99;100286.88;6247776;28;20060;-76
2022/09/15 13:33:03;;;;;;;0.63;0.25;;;;;;;17.15;63.44;100283.03;6247969;28;20527;-75
2022/09/15 13:36:19;;;;;;;0.20;0.20;;;;;;;17.15;63.29;100287.50;6247933;28;20049;-75
2022/09/15 13:39:48;;;;;;;1.67;0.47;;;;;;;16.94;63.91;100277.81;6247575;28;20515;-75
2022/09/15 13:43:04;;;;;;;1.08;0.45;;;;;;;17.08;63.94;100279.25;6247608;28;20046;-75
2022/09/15 13:46:22;;;;;;;0.73;0.22;;;;;;;17.17;63.29;100282.91;6247278;28;20118;-76
2022/09/15 13:49:46;;;;;;;1.65;0.45;;;;;;;17.20;63.77;100280.81;6243596;28;20432;-73
2022/09/15 13:53:20;;;;;;;0.95;0.38;;;;;;;17.33;63.59;100269.94;6231034;28;20049;-75
2022/09/15 13:56:26;;;;;;;1.83;0.50;;;;;;;17.39;61.61;100264.06;6208641;28;20050;-75
2022/09/15 13:59:32;;;;;;;0.90;0.32;;;;;;;17.50;62.34;100263.97;6238368;28;20053;-75
2022/09/15 14:02:34;;;;;;;1.90;0.30;;;;;;;17.72;61.85;100257.53;6246619;28;20056;-76
2022/09/15 14:05:36;;;;;;;0.43;0.22;;;;;;;17.67;61.35;100251.81;6245866;28;20512;-72
2022/09/15 14:08:39;;;;;;;3.35;0.75;;;;;;;17.84;60.75;100265.41;6245844;28;20049;-74
2022/09/15 14:11:42;;;;;;;0.88;0.40;;;;;;;17.84;61.58;100266.22;6240802;28;20456;-75
2022/09/15 14:14:49;;;;;;;1.40;0.95;;;;;;;17.53;62.10;100275.28;6246309;28;20053;-74
2022/09/15 14:17:51;;;;;;;1.55;0.47;;;;;;;17.46;62.92;100259.06;6241717;28;20069;-73